Time;durP1;ratioP1;P1;durP2;ratioP2;P2;SDS_P1;SDS_P2;PMS_P1;PMS_P2;Temp;Humidity;BMP_temperature;BMP_pressure;BME280_temperature;BME280_humidity;BME280_pressure;Samples;Min_cycle;Max_cycle;Signal;HPM_P1;HPM_P2
2022/04/24 00:00:19;;;;;;;12.20;9.90;;;;;;;10.94;79.02;98458.44;1799900;78;21403;-41
2022/04/24 00:04:04;;;;;;;14.30;10.82;;;;;;;10.99;78.79;98457.46;1843762;76;22463;-41
2022/04/24 00:06:34;;;;;;;15.75;11.68;;;;;;;10.89;79.11;98461.70;1814551;79;20910;-42
2022/04/24 00:09:03;;;;;;;15.25;11.33;;;;;;;10.88;79.25;98460.74;1814656;79;20947;-41
2022/04/24 00:11:31;;;;;;;14.30;11.22;;;;;;;10.88;79.22;98464.23;1814798;79;20970;-41
2022/04/24 00:13:58;;;;;;;16.75;11.48;;;;;;;10.90;79.14;98463.25;1814873;79;20954;-41
2022/04/24 00:16:24;;;;;;;17.85;12.03;;;;;;;10.90;79.07;98463.25;1815127;79;21030;-41
2022/04/24 00:18:52;;;;;;;21.48;13.60;;;;;;;10.86;79.28;98463.83;1814790;78;20950;-41
2022/04/24 00:21:19;;;;;;;21.10;13.00;;;;;;;10.80;79.25;98472.12;1814806;79;21480;-41
2022/04/24 00:23:47;;;;;;;19.35;12.43;;;;;;;10.73;79.43;98470.77;1814708;79;21567;-42
2022/04/24 00:26:15;;;;;;;19.23;12.65;;;;;;;10.75;79.45;98469.00;1814815;79;20951;-41
2022/04/24 00:28:42;;;;;;;21.80;14.15;;;;;;;10.80;79.43;98468.64;1814971;79;21468;-41
2022/04/24 00:31:11;;;;;;;23.52;14.10;;;;;;;10.79;79.57;98465.17;1814860;79;20980;-41
2022/04/24 00:33:37;;;;;;;23.27;13.53;;;;;;;10.78;79.67;98472.33;1814755;79;21137;-41
2022/04/24 00:36:05;;;;;;;18.95;13.18;;;;;;;10.75;79.63;98469.78;1814876;79;21567;-42
2022/04/24 00:38:34;;;;;;;20.92;13.75;;;;;;;10.79;79.52;98471.17;1814760;79;20963;-41
2022/04/24 00:41:02;;;;;;;22.42;13.40;;;;;;;10.85;79.44;98462.84;1814797;79;21003;-42
2022/04/24 00:43:30;;;;;;;24.07;14.80;;;;;;;10.86;79.54;98469.25;1815127;79;21556;-41
2022/04/24 00:46:30;;;;;;;21.25;14.05;;;;;;;10.89;79.45;98467.73;1765430;79;23104;-42
2022/04/24 00:48:57;;;;;;;20.72;13.62;;;;;;;10.91;79.26;98461.33;1812796;79;20994;-42
2022/04/24 00:51:25;;;;;;;19.82;13.75;;;;;;;10.95;79.03;98466.75;1814493;79;21556;-41
2022/04/24 00:53:53;;;;;;;23.77;14.73;;;;;;;10.96;79.01;98462.88;1814477;79;20955;-41
2022/04/24 00:56:22;;;;;;;21.37;13.85;;;;;;;10.95;79.10;98459.97;1814508;79;21533;-41
2022/04/24 00:58:50;;;;;;;18.40;12.90;;;;;;;10.96;78.87;98462.88;1814526;79;21923;-41
2022/04/24 01:01:18;;;;;;;19.75;14.43;;;;;;;10.98;78.81;98465.42;1814593;79;21559;-41
2022/04/24 01:03:46;;;;;;;21.42;14.87;;;;;;;11.01;78.80;98462.52;1827760;78;20961;-41
2022/04/24 01:06:14;;;;;;;22.95;14.38;;;;;;;11.00;78.89;98460.38;1832156;78;20985;-41
2022/04/24 01:08:42;;;;;;;22.17;15.30;;;;;;;10.95;78.83;98453.97;1832246;78;21551;-41
2022/04/24 01:11:09;;;;;;;19.92;13.55;;;;;;;10.93;78.96;98454.17;1832156;78;21238;-41
2022/04/24 01:13:38;;;;;;;22.50;14.38;;;;;;;10.97;78.91;98465.22;1831802;78;20965;-41
2022/04/24 01:16:05;;;;;;;24.52;15.95;;;;;;;11.01;78.82;98465.23;1831621;78;20993;-41
2022/04/24 01:18:33;;;;;;;23.52;14.83;;;;;;;11.00;78.81;98470.45;1831565;78;20934;-41
2022/04/24 01:21:08;;;;;;;22.10;14.05;;;;;;;10.93;78.89;98463.66;1831506;78;20973;-41
2022/04/24 01:23:38;;;;;;;24.35;14.47;;;;;;;10.91;79.01;98464.03;1831601;78;21773;-41
2022/04/24 01:26:05;;;;;;;21.07;16.00;;;;;;;10.95;78.93;98464.03;1831497;78;21001;-41
2022/04/24 01:28:34;;;;;;;24.98;16.55;;;;;;;10.98;78.99;98464.07;1831662;78;21004;-41
2022/04/24 01:31:00;;;;;;;24.02;16.87;;;;;;;10.99;79.12;98453.39;1831790;78;20962;-41
2022/04/24 01:33:28;;;;;;;23.15;15.63;;;;;;;10.98;79.20;98458.64;1831631;78;21005;-41
2022/04/24 01:35:55;;;;;;;21.20;15.70;;;;;;;11.00;79.14;98463.66;1831598;78;21185;-42
2022/04/24 01:38:23;;;;;;;24.35;15.18;;;;;;;11.03;79.00;98464.27;1831562;78;21484;-41
2022/04/24 01:40:50;;;;;;;22.40;16.57;;;;;;;11.06;79.01;98466.20;1831598;78;20942;-41
2022/04/24 01:43:18;;;;;;;22.13;16.97;;;;;;;11.06;79.13;98468.34;1831736;78;21488;-42
2022/04/24 01:45:45;;;;;;;20.37;14.35;;;;;;;11.08;79.17;98466.61;1831511;78;21014;-41
2022/04/24 01:48:12;;;;;;;22.22;15.28;;;;;;;11.10;79.00;98470.48;1831667;78;21126;-41
2022/04/24 01:50:39;;;;;;;23.27;16.55;;;;;;;11.14;78.82;98469.13;1831366;78;20978;-42
2022/04/24 01:53:06;;;;;;;23.52;15.93;;;;;;;11.17;78.80;98467.02;1831631;78;21020;-41
2022/04/24 01:55:34;;;;;;;23.73;17.02;;;;;;;11.18;78.76;98468.58;1831584;78;20985;-41
2022/04/24 01:58:01;;;;;;;21.15;15.00;;;;;;;11.15;78.65;98478.82;1831762;78;21045;-41
2022/04/24 02:00:30;;;;;;;22.95;15.48;;;;;;;11.10;78.67;98483.27;1831669;78;21476;-41
2022/04/24 02:02:58;;;;;;;20.23;15.05;;;;;;;11.13;78.66;98479.80;1826452;78;20970;-41
2022/04/24 02:05:26;;;;;;;22.50;15.58;;;;;;;11.14;78.70;98482.69;1813913;79;20959;-41
2022/04/24 02:07:53;;;;;;;24.32;16.73;;;;;;;11.10;78.73;98481.91;1814023;79;21599;-41
2022/04/24 02:10:21;;;;;;;21.85;15.25;;;;;;;11.01;78.84;98484.98;1814015;79;20954;-41
2022/04/24 02:12:49;;;;;;;19.75;13.60;;;;;;;10.90;79.06;98482.23;1813837;79;21226;-41
2022/04/24 02:15:17;;;;;;;19.77;14.25;;;;;;;10.89;79.25;98482.03;1814030;79;21017;-41
2022/04/24 02:17:46;;;;;;;17.87;13.70;;;;;;;10.88;79.35;98483.22;1814131;79;20970;-41
2022/04/24 02:20:14;;;;;;;18.42;13.60;;;;;;;10.82;79.60;98486.09;1809151;79;21073;-41
2022/04/24 02:22:40;;;;;;;16.95;11.97;;;;;;;10.78;79.77;98489.38;1814076;79;20896;-41
2022/04/24 02:25:07;;;;;;;15.60;11.03;;;;;;;10.72;79.88;98487.40;1814192;79;21168;-41
2022/04/24 02:27:36;;;;;;;11.03;9.10;;;;;;;10.69;79.86;98497.08;1813971;79;20979;-41
2022/04/24 02:30:03;;;;;;;13.98;9.08;;;;;;;10.63;79.21;98498.59;1814272;79;20983;-41
2022/04/24 02:32:31;;;;;;;10.58;9.03;;;;;;;10.51;78.93;98500.27;1809074;79;21038;-42
2022/04/24 02:34:58;;;;;;;10.72;7.87;;;;;;;10.41;78.82;98506.41;1813959;79;21061;-41
2022/04/24 02:37:26;;;;;;;9.65;7.92;;;;;;;10.38;78.77;98509.88;1808592;79;21141;-41
2022/04/24 02:39:53;;;;;;;10.50;7.60;;;;;;;10.35;78.74;98521.48;1814069;79;21030;-41
2022/04/24 02:42:19;;;;;;;9.68;6.97;;;;;;;10.25;78.58;98514.06;1814067;79;21026;-41
2022/04/24 02:44:47;;;;;;;7.72;5.72;;;;;;;10.16;78.43;98521.75;1814125;79;21182;-41
2022/04/24 02:47:14;;;;;;;6.33;5.72;;;;;;;10.04;78.45;98524.91;1814185;79;21010;-41
2022/04/24 02:49:41;;;;;;;8.23;5.92;;;;;;;10.03;78.29;98532.83;1813948;79;21226;-41
2022/04/24 02:52:08;;;;;;;8.30;6.50;;;;;;;9.95;78.45;98524.46;1813993;79;20927;-41
2022/04/24 02:54:35;;;;;;;6.42;5.80;;;;;;;9.87;78.65;98530.20;1813903;79;21011;-41
2022/04/24 02:57:05;;;;;;;6.53;5.55;;;;;;;9.81;78.65;98533.83;1814026;79;21512;-41
2022/04/24 02:59:33;;;;;;;7.78;6.50;;;;;;;9.82;78.69;98534.03;1813917;78;20947;-41
2022/04/24 03:02:00;;;;;;;7.10;6.20;;;;;;;9.81;78.52;98544.66;1813937;79;21128;-41
2022/04/24 03:04:26;;;;;;;7.30;6.22;;;;;;;9.76;78.50;98553.11;1826705;78;20926;-41
2022/04/24 03:06:54;;;;;;;7.67;5.92;;;;;;;9.69;78.51;98554.96;1831458;78;20946;-41
2022/04/24 03:09:21;;;;;;;6.20;5.58;;;;;;;9.60;78.52;98561.47;1831349;78;21391;-41
2022/04/24 03:11:48;;;;;;;6.60;5.30;;;;;;;9.57;78.31;98566.85;1831415;78;21032;-41
2022/04/24 03:14:16;;;;;;;6.95;5.55;;;;;;;9.50;78.07;98578.94;1831452;78;21234;-41
2022/04/24 03:16:44;;;;;;;6.58;5.30;;;;;;;9.41;78.22;98586.58;1831400;78;21575;-41
2022/04/24 03:19:11;;;;;;;5.10;4.40;;;;;;;9.29;78.15;98591.68;1831467;78;20887;-41
2022/04/24 03:21:37;;;;;;;7.53;4.67;;;;;;;9.23;78.10;98600.48;1831278;78;21346;-41
2022/04/24 03:24:06;;;;;;;6.95;5.40;;;;;;;9.18;78.11;98591.34;1831550;78;20958;-41
2022/04/24 03:26:34;;;;;;;5.95;4.70;;;;;;;9.09;78.08;98597.81;1831441;78;21484;-41
2022/04/24 03:29:02;;;;;;;6.90;5.17;;;;;;;9.00;78.20;98602.73;1831470;78;20976;-41
2022/04/24 03:31:29;;;;;;;5.97;5.37;;;;;;;8.93;78.36;98605.89;1831681;78;20930;-41
2022/04/24 03:33:58;;;;;;;7.67;6.30;;;;;;;8.89;78.38;98607.20;1831470;78;20942;-41
2022/04/24 03:36:26;;;;;;;6.35;5.75;;;;;;;8.87;78.43;98608.13;1831732;78;20997;-41
2022/04/24 03:38:53;;;;;;;7.05;6.00;;;;;;;8.83;78.68;98618.12;1831460;78;21282;-41
2022/04/24 03:41:19;;;;;;;7.33;6.47;;;;;;;8.77;78.91;98616.88;1831524;78;21018;-41
2022/04/24 03:43:47;;;;;;;7.03;6.28;;;;;;;8.75;78.91;98615.69;1831488;78;20894;-41
2022/04/24 03:46:13;;;;;;;7.95;7.15;;;;;;;8.75;78.88;98624.58;1831672;78;21480;-41
2022/04/24 03:48:41;;;;;;;8.25;7.35;;;;;;;8.75;79.11;98619.17;1831417;78;20930;-41
2022/04/24 03:51:08;;;;;;;7.80;7.00;;;;;;;8.77;79.28;98631.73;1831393;78;21120;-41
2022/04/24 03:53:36;;;;;;;7.85;6.75;;;;;;;8.83;79.21;98633.55;1831437;78;20966;-41
2022/04/24 03:56:04;;;;;;;8.25;7.45;;;;;;;8.85;78.98;98629.36;1831572;78;20993;-41
2022/04/24 03:58:32;;;;;;;8.75;7.67;;;;;;;8.89;78.74;98632.10;1829613;77;21463;-41
2022/04/24 04:00:59;;;;;;;8.25;7.42;;;;;;;8.84;78.53;98631.06;1820167;78;21052;-41
2022/04/24 04:03:27;;;;;;;8.50;7.60;;;;;;;8.83;78.66;98632.98;1820022;78;23253;-42
2022/04/24 04:05:55;;;;;;;9.90;7.55;;;;;;;8.88;78.54;98628.62;1820293;78;21490;-41
2022/04/24 04:08:22;;;;;;;10.93;8.10;;;;;;;8.97;78.26;98626.42;1820416;78;20981;-41
2022/04/24 04:10:49;;;;;;;9.73;8.78;;;;;;;9.00;77.70;98637.88;1820416;78;20993;-41
2022/04/24 04:13:18;;;;;;;10.63;9.48;;;;;;;8.97;77.56;98639.94;1820523;78;21515;-41
2022/04/24 04:15:46;;;;;;;10.93;8.68;;;;;;;8.93;77.63;98636.41;1820351;78;20934;-41
2022/04/24 04:18:13;;;;;;;9.78;8.78;;;;;;;8.97;77.63;98634.53;1820372;78;21040;-42
2022/04/24 04:20:40;;;;;;;11.68;9.95;;;;;;;9.08;77.37;98631.41;1820430;78;20898;-41
2022/04/24 04:23:07;;;;;;;12.15;10.85;;;;;;;9.13;77.10;98637.84;1820481;78;20946;-41
2022/04/24 04:25:37;;;;;;;17.00;10.40;;;;;;;9.19;77.07;98640.23;1820570;78;20992;-41
2022/04/24 04:28:04;;;;;;;12.05;9.60;;;;;;;9.22;77.07;98643.54;1820767;78;21314;-42
2022/04/24 04:30:32;;;;;;;11.93;9.83;;;;;;;9.27;76.80;98655.39;1820845;78;20925;-41
2022/04/24 04:33:00;;;;;;;10.70;9.60;;;;;;;9.28;76.50;98649.63;1820731;78;20867;-41
2022/04/24 04:35:29;;;;;;;13.98;10.85;;;;;;;9.34;76.60;98658.20;1820633;78;20909;-41
2022/04/24 04:37:56;;;;;;;11.60;10.28;;;;;;;9.31;76.41;98653.50;1820648;78;21064;-41
2022/04/24 04:40:25;;;;;;;11.97;10.00;;;;;;;9.26;76.44;98652.47;1820648;78;21498;-42
2022/04/24 04:42:52;;;;;;;11.95;10.53;;;;;;;9.23;76.14;98651.86;1820498;78;21047;-42
2022/04/24 04:45:19;;;;;;;13.15;10.30;;;;;;;9.22;76.23;98655.70;1820649;78;20898;-42
2022/04/24 04:47:50;;;;;;;11.88;10.45;;;;;;;9.19;75.94;98661.29;1820544;78;21051;-41
2022/04/24 04:50:15;;;;;;;12.03;10.82;;;;;;;9.13;76.07;98661.39;1820548;78;20993;-41
2022/04/24 04:52:42;;;;;;;11.38;10.23;;;;;;;9.07;76.15;98667.69;1820609;78;21145;-42
2022/04/24 04:55:11;;;;;;;12.20;10.90;;;;;;;9.07;76.38;98666.91;1820630;78;20894;-41
2022/04/24 04:57:39;;;;;;;12.70;11.35;;;;;;;9.11;76.27;98661.75;1820541;78;20906;-42
2022/04/24 05:00:08;;;;;;;13.43;11.18;;;;;;;9.16;76.27;98662.00;1820771;78;21503;-41
2022/04/24 05:02:38;;;;;;;14.20;12.13;;;;;;;9.18;76.35;98666.48;1820724;78;21559;-41
2022/04/24 05:05:08;;;;;;;12.33;11.03;;;;;;;9.20;76.64;98663.42;1805613;78;20975;-41
2022/04/24 05:07:37;;;;;;;;;;;;;;;9.30;76.49;98665.46;1803298;79;20935;-41
2022/04/24 05:10:06;;;;;;;13.88;12.20;;;;;;;9.40;76.06;98672.94;1800334;79;20205;-41
2022/04/24 05:12:35;;;;;;;14.58;12.40;;;;;;;9.38;75.66;98669.27;1800272;79;21783;-41
2022/04/24 05:15:08;;;;;;;14.35;12.70;;;;;;;9.43;75.60;98673.56;1795207;78;21031;-41
2022/04/24 05:17:37;;;;;;;14.25;12.18;;;;;;;9.50;75.87;98672.28;1800492;79;20979;-41
2022/04/24 05:20:10;;;;;;;16.85;13.15;;;;;;;9.60;75.32;98672.98;1800378;79;21022;-41
2022/04/24 05:22:40;;;;;;;18.52;13.85;;;;;;;9.69;75.05;98682.95;1800299;79;20928;-41
2022/04/24 05:25:09;;;;;;;16.30;14.18;;;;;;;9.76;74.32;98677.63;1800310;79;21548;-41
2022/04/24 05:27:37;;;;;;;;;;;;;;;9.78;73.96;98685.39;1773060;79;21014;-42
2022/04/24 05:30:07;;;;;;;17.12;14.35;;;;;;;9.79;73.67;98681.50;1800394;79;20157;-41
2022/04/24 05:32:42;;;;;;;16.02;13.80;;;;;;;9.73;73.79;98683.76;1800597;79;20971;-41
2022/04/24 05:35:11;;;;;;;18.62;14.47;;;;;;;9.79;73.01;98679.58;1800387;79;20975;-41
2022/04/24 05:37:37;;;;;;;16.12;14.18;;;;;;;9.88;72.77;98684.70;1800379;79;21090;-42
2022/04/24 05:40:07;;;;;;;17.45;14.47;;;;;;;9.90;71.29;98680.48;1800415;79;20999;-42
2022/04/24 05:42:34;;;;;;;17.02;14.45;;;;;;;9.93;71.68;98678.38;1800714;79;21200;-42
2022/04/24 05:45:01;;;;;;;19.73;13.53;;;;;;;9.99;71.54;98680.18;1800116;79;20939;-41
2022/04/24 05:47:29;;;;;;;15.30;12.98;;;;;;;10.10;72.17;98678.94;1800166;79;20991;-41
2022/04/24 05:49:56;;;;;;;15.10;12.70;;;;;;;10.24;71.78;98678.53;1800065;79;21589;-42
2022/04/24 05:52:24;;;;;;;14.50;12.30;;;;;;;10.42;71.97;98681.38;1800191;79;21043;-42
2022/04/24 05:54:51;;;;;;;14.53;12.05;;;;;;;10.53;70.15;98679.55;1779933;79;21224;-42
2022/04/24 05:57:17;;;;;;;17.77;12.03;;;;;;;10.59;69.84;98680.77;1768562;81;21027;-42
2022/04/24 05:59:44;;;;;;;12.75;11.35;;;;;;;10.62;68.37;98685.42;1768655;81;21003;-42
2022/04/24 06:02:11;;;;;;;12.37;10.58;;;;;;;10.64;66.54;98689.91;1768645;81;21581;-42
2022/04/24 06:04:38;;;;;;;11.43;10.23;;;;;;;10.62;66.41;98685.42;1776958;80;20913;-42
2022/04/24 06:07:05;;;;;;;12.25;10.25;;;;;;;10.67;67.24;98693.78;1788255;80;21246;-42
2022/04/24 06:09:32;;;;;;;11.45;10.25;;;;;;;10.83;67.80;98684.81;1788189;80;20952;-42
2022/04/24 06:12:01;;;;;;;12.15;9.95;;;;;;;10.97;67.52;98691.67;1788166;80;20948;-42
2022/04/24 06:14:29;;;;;;;12.85;10.20;;;;;;;11.05;67.45;98689.77;1788241;80;21596;-41
2022/04/24 06:16:56;;;;;;;12.55;10.80;;;;;;;11.14;65.60;98691.56;1788214;80;21394;-42
2022/04/24 06:19:23;;;;;;;12.00;10.80;;;;;;;11.22;65.52;98689.12;1788429;79;21132;-42
2022/04/24 06:21:52;;;;;;;15.58;11.68;;;;;;;11.28;64.66;98687.58;1788051;80;20893;-42
2022/04/24 06:24:19;;;;;;;13.40;10.82;;;;;;;11.30;66.18;98694.77;1788382;80;20967;-42
2022/04/24 06:26:45;;;;;;;11.38;9.75;;;;;;;11.29;63.82;98689.92;1788415;79;21102;-42
2022/04/24 06:29:13;;;;;;;11.50;10.28;;;;;;;11.30;62.94;98692.84;1788368;80;20969;-42
2022/04/24 06:31:41;;;;;;;10.68;8.85;;;;;;;11.36;63.38;98692.48;1788445;79;21444;-42
2022/04/24 06:34:10;;;;;;;8.05;6.85;;;;;;;11.44;61.97;98694.05;1788366;79;20952;-42
2022/04/24 06:36:38;;;;;;;11.05;9.28;;;;;;;11.50;58.59;98693.32;1788212;80;21004;-42
2022/04/24 06:39:05;;;;;;;9.83;7.97;;;;;;;11.54;59.28;98699.54;1788109;80;21024;-42
2022/04/24 06:41:33;;;;;;;10.70;8.35;;;;;;;11.56;58.91;98705.37;1788192;80;20920;-42
2022/04/24 06:43:59;;;;;;;9.28;7.67;;;;;;;11.58;60.58;98701.69;1788171;80;21210;-42
2022/04/24 06:46:26;;;;;;;9.80;8.23;;;;;;;11.67;61.44;98708.11;1788187;80;20944;-42
2022/04/24 06:48:54;;;;;;;9.58;8.08;;;;;;;11.80;59.47;98706.66;1788183;80;21039;-42
2022/04/24 06:51:20;;;;;;;9.10;8.20;;;;;;;11.88;59.58;98704.73;1788386;80;21443;-42
2022/04/24 06:53:49;;;;;;;10.23;8.38;;;;;;;11.93;58.59;98709.79;1788247;80;20972;-42
2022/04/24 06:56:17;;;;;;;9.63;7.87;;;;;;;11.97;59.12;98711.36;1788347;79;21765;-42
2022/04/24 06:58:47;;;;;;;10.23;8.50;;;;;;;12.04;59.57;98709.25;1788148;80;20904;-42
2022/04/24 07:01:15;;;;;;;9.40;8.10;;;;;;;12.14;59.22;98713.93;1788463;80;20970;-42
2022/04/24 07:03:43;;;;;;;9.63;7.33;;;;;;;12.17;56.06;98703.64;1788155;80;20912;-42
2022/04/24 07:06:10;;;;;;;8.33;6.65;;;;;;;12.18;56.38;98714.71;1770547;80;21102;-42
2022/04/24 07:08:37;;;;;;;9.35;8.35;;;;;;;12.24;56.28;98719.97;1769082;81;21234;-42
2022/04/24 07:11:05;;;;;;;8.20;7.40;;;;;;;12.32;55.44;98719.39;1768841;81;20959;-42
2022/04/24 07:13:33;;;;;;;9.80;8.43;;;;;;;12.36;55.82;98719.59;1725473;81;21037;-42
2022/04/24 07:16:01;;;;;;;9.68;8.20;;;;;;;12.41;56.01;98716.48;1721316;83;21558;-42
2022/04/24 07:18:30;;;;;;;9.03;8.13;;;;;;;12.45;55.25;98722.70;1761719;80;20973;-42
2022/04/24 07:20:58;;;;;;;10.50;8.15;;;;;;;12.49;55.78;98722.13;1789310;80;21008;-42
2022/04/24 07:23:26;;;;;;;9.13;7.78;;;;;;;12.57;54.45;98722.34;1789190;80;21558;-42
2022/04/24 07:25:53;;;;;;;8.65;7.70;;;;;;;12.62;54.59;98723.31;1749648;82;21530;-42
2022/04/24 07:28:22;;;;;;;8.33;7.25;;;;;;;12.72;53.83;98727.78;1762046;81;21022;-42
2022/04/24 07:30:49;;;;;;;6.75;6.05;;;;;;;12.79;53.13;98731.84;1762108;81;20998;-42
2022/04/24 07:33:16;;;;;;;6.47;5.87;;;;;;;12.84;51.76;98731.45;1762217;81;21144;-42
2022/04/24 07:35:43;;;;;;;6.03;5.42;;;;;;;12.88;51.46;98742.53;1762015;81;21030;-42
2022/04/24 07:38:10;;;;;;;7.70;6.25;;;;;;;12.96;51.88;98737.88;1762227;81;21024;-42
2022/04/24 07:40:42;;;;;;;6.65;5.72;;;;;;;13.05;52.12;98739.61;1762087;81;21029;-42
2022/04/24 07:43:10;;;;;;;5.53;4.85;;;;;;;13.12;50.65;98733.42;1762074;81;21093;-42
2022/04/24 07:45:47;;;;;;;6.03;5.15;;;;;;;13.15;50.62;98739.44;1762606;81;21192;-42
2022/04/24 07:48:17;;;;;;;5.58;5.00;;;;;;;13.27;50.89;98737.07;1762330;81;20930;-42
2022/04/24 07:50:52;;;;;;;6.45;5.53;;;;;;;13.45;50.24;98731.02;1762288;81;21084;-42
2022/04/24 07:53:20;;;;;;;5.50;4.78;;;;;;;13.67;49.30;98725.48;1757626;81;21033;-42
2022/04/24 07:55:49;;;;;;;6.10;5.35;;;;;;;13.82;48.59;98729.70;1762624;81;20951;-42
2022/04/24 07:58:15;;;;;;;7.05;5.50;;;;;;;13.97;47.65;98735.87;1762289;81;21240;-42
2022/04/24 08:00:44;;;;;;;6.17;5.37;;;;;;;14.05;47.55;98734.07;1762283;81;20997;-42
2022/04/24 08:03:13;;;;;;;5.83;5.22;;;;;;;14.09;46.57;98734.83;1762193;81;20990;-42
2022/04/24 08:05:45;;;;;;;6.15;5.47;;;;;;;14.13;47.08;98730.73;1762209;81;21532;-42
2022/04/24 08:08:14;;;;;;;6.85;5.50;;;;;;;14.15;47.57;98731.88;1762132;81;21088;-42
2022/04/24 08:10:45;;;;;;;5.97;5.35;;;;;;;14.12;45.93;98731.32;1762042;81;20986;-42
2022/04/24 08:13:12;;;;;;;6.20;5.60;;;;;;;13.98;46.79;98728.67;1762266;81;21535;-42
2022/04/24 08:15:40;;;;;;;6.15;5.35;;;;;;;13.84;46.70;98734.97;1762009;81;20942;-42
2022/04/24 08:18:09;;;;;;;7.30;5.97;;;;;;;13.78;48.93;98738.48;1762135;81;20980;-42
2022/04/24 08:20:37;;;;;;;5.80;5.08;;;;;;;13.80;48.44;98737.48;1762084;81;20934;-42
2022/04/24 08:23:06;;;;;;;7.22;6.33;;;;;;;13.87;47.53;98735.53;1762108;81;21150;-42
2022/04/24 08:25:37;;;;;;;7.97;5.40;;;;;;;13.89;47.77;98745.42;1762375;81;21045;-42
2022/04/24 08:28:08;;;;;;;7.00;5.55;;;;;;;13.88;47.01;98743.90;1762283;81;21013;-42
2022/04/24 08:30:40;;;;;;;7.60;6.25;;;;;;;13.77;47.25;98728.75;1762745;81;20946;-42
2022/04/24 08:33:08;;;;;;;5.83;5.25;;;;;;;14.02;46.52;98739.55;1762324;81;21062;-42
2022/04/24 08:35:34;;;;;;;6.85;5.95;;;;;;;14.17;47.28;98732.27;1762564;81;21227;-42
2022/04/24 08:38:03;;;;;;;8.63;6.08;;;;;;;14.37;47.51;98733.94;1762137;81;20986;-42
2022/04/24 08:40:31;;;;;;;6.92;5.65;;;;;;;14.48;47.12;98732.47;1762280;81;20923;-42
2022/04/24 08:42:58;;;;;;;6.45;5.17;;;;;;;14.57;46.83;98740.39;1762224;81;21029;-42
2022/04/24 08:45:27;;;;;;;6.00;5.40;;;;;;;14.63;48.47;98746.98;1762299;81;21029;-42
2022/04/24 08:47:56;;;;;;;9.18;5.78;;;;;;;14.63;46.43;98747.56;1762156;81;20910;-42
2022/04/24 08:50:25;;;;;;;6.47;5.55;;;;;;;14.61;46.80;98748.57;1762744;81;20974;-42
2022/04/24 08:52:52;;;;;;;6.50;5.67;;;;;;;14.62;46.98;98741.95;1762583;81;20970;-42
2022/04/24 08:55:19;;;;;;;7.00;5.62;;;;;;;14.66;46.78;98754.38;1762483;81;20913;-42
2022/04/24 08:57:46;;;;;;;8.18;6.53;;;;;;;14.78;46.52;98750.37;1762614;81;21100;-42
2022/04/24 09:00:17;;;;;;;5.62;5.12;;;;;;;14.97;46.69;98749.83;1762496;81;20981;-42
2022/04/24 09:02:47;;;;;;;7.97;5.72;;;;;;;15.16;46.61;98754.73;1762367;81;21488;-42
2022/04/24 09:05:14;;;;;;;6.60;5.92;;;;;;;15.33;46.84;98746.78;1761155;81;21029;-42
2022/04/24 09:07:43;;;;;;;6.65;5.53;;;;;;;15.50;44.89;98749.91;1755516;81;20951;-42
2022/04/24 09:10:14;;;;;;;6.75;5.55;;;;;;;15.59;44.50;98746.90;1755686;81;21026;-42
2022/04/24 09:12:42;;;;;;;6.78;6.08;;;;;;;15.63;45.72;98746.88;1755399;81;21143;-42
2022/04/24 09:15:15;;;;;;;6.47;5.60;;;;;;;15.69;45.58;98738.39;1769109;81;21029;-42
2022/04/24 09:17:42;;;;;;;6.35;5.72;;;;;;;15.72;44.64;98745.80;1769105;81;20955;-42
2022/04/24 09:20:18;;;;;;;6.20;5.60;;;;;;;15.69;46.18;98741.72;1752307;81;20980;-42
2022/04/24 09:22:47;;;;;;;5.40;4.90;;;;;;;15.72;45.92;98741.70;1784904;80;21020;-42
2022/04/24 09:25:15;;;;;;;5.92;5.33;;;;;;;15.89;44.29;98742.06;1784911;80;20984;-42
2022/04/24 09:27:43;;;;;;;5.03;4.45;;;;;;;16.08;43.06;98736.55;1755477;81;20958;-42
2022/04/24 09:30:15;;;;;;;5.28;4.78;;;;;;;16.26;43.48;98750.00;1768978;81;21009;-42
2022/04/24 09:32:51;;;;;;;6.42;4.70;;;;;;;16.40;42.49;98748.42;1768950;81;21045;-42
2022/04/24 09:35:33;;;;;;;5.10;4.55;;;;;;;16.48;42.87;98747.91;1752712;81;21020;-42
2022/04/24 09:38:13;;;;;;;5.45;4.80;;;;;;;16.49;43.53;98748.68;1755440;81;21232;-42
2022/04/24 09:40:44;;;;;;;6.05;5.15;;;;;;;16.38;42.68;98750.20;1768857;81;20981;-42
2022/04/24 09:43:17;;;;;;;6.08;5.45;;;;;;;16.37;42.97;98747.86;1738262;82;21580;-42
2022/04/24 09:45:54;;;;;;;6.22;5.17;;;;;;;16.45;43.63;98765.75;1757545;81;21085;-42
2022/04/24 09:48:23;;;;;;;5.35;4.80;;;;;;;16.51;42.65;98756.64;1755558;81;21005;-42
2022/04/24 09:50:50;;;;;;;5.37;4.25;;;;;;;16.49;44.11;98761.77;1769302;81;21093;-42
2022/04/24 09:53:21;;;;;;;6.03;4.55;;;;;;;16.56;43.34;98760.88;1768956;81;21532;-42
2022/04/24 09:55:49;;;;;;;5.37;4.87;;;;;;;16.60;41.99;98758.14;1769286;81;21559;-42
2022/04/24 09:58:17;;;;;;;5.55;4.92;;;;;;;16.59;41.85;98768.30;1769131;81;21604;-42
2022/04/24 10:00:45;;;;;;;5.90;4.70;;;;;;;16.58;43.90;98768.13;1769667;81;21006;-42
2022/04/24 10:03:16;;;;;;;5.45;4.95;;;;;;;16.61;43.49;98765.91;1769252;81;21006;-42
2022/04/24 10:05:45;;;;;;;5.40;4.90;;;;;;;16.64;41.81;98763.73;1769369;81;20957;-42
2022/04/24 10:08:14;;;;;;;5.33;4.83;;;;;;;16.65;42.12;98766.66;1770798;81;21523;-42
2022/04/24 10:10:43;;;;;;;7.22;5.65;;;;;;;16.61;42.32;98767.28;1763990;81;21024;-42
2022/04/24 10:13:12;;;;;;;6.08;5.25;;;;;;;16.56;42.15;98763.61;1739839;82;20980;-42
2022/04/24 10:15:52;;;;;;;4.75;4.35;;;;;;;16.57;41.50;98763.80;1739592;82;21024;-42
2022/04/24 10:18:42;;;;;;;4.53;4.00;;;;;;;16.67;42.94;98766.23;1739381;82;21027;-42
2022/04/24 10:21:48;;;;;;;6.17;4.40;;;;;;;16.76;42.66;98761.77;1762915;81;20936;-42
2022/04/24 10:24:17;;;;;;;5.42;4.90;;;;;;;16.70;41.95;98760.69;1762977;81;21254;-42
2022/04/24 10:26:55;;;;;;;5.33;4.83;;;;;;;16.70;41.92;98759.32;1762922;81;21031;-42
2022/04/24 10:29:24;;;;;;;4.47;4.05;;;;;;;16.82;42.00;98762.86;1762851;81;21719;-42
2022/04/24 10:31:52;;;;;;;7.05;4.50;;;;;;;16.88;40.90;98760.42;1762892;81;20944;-42
2022/04/24 10:34:20;;;;;;;4.75;4.35;;;;;;;16.85;41.48;98767.49;1762954;81;20960;-42
2022/04/24 10:37:00;;;;;;;5.37;4.50;;;;;;;16.90;41.56;98769.77;1762873;81;21071;-42
2022/04/24 10:39:33;;;;;;;4.67;4.28;;;;;;;16.92;41.48;98767.39;1762819;81;21009;-42
2022/04/24 10:42:09;;;;;;;5.30;4.37;;;;;;;16.90;41.81;98768.39;1762891;81;21226;-42
2022/04/24 10:44:49;;;;;;;5.15;4.53;;;;;;;17.06;41.43;98765.60;1758609;81;21338;-42
2022/04/24 10:47:15;;;;;;;5.17;4.30;;;;;;;17.24;40.72;98764.70;1736136;81;21963;-42
2022/04/24 10:49:43;;;;;;;5.20;4.67;;;;;;;17.40;40.51;98764.81;1762884;81;21014;-42
2022/04/24 10:52:10;;;;;;;5.03;4.35;;;;;;;17.54;40.10;98765.91;1762834;81;21593;-42
2022/04/24 10:54:40;;;;;;;4.15;3.75;;;;;;;17.64;39.90;98765.56;1762914;81;21229;-42
2022/04/24 10:57:20;;;;;;;4.67;4.25;;;;;;;17.59;39.59;98767.42;1762813;81;21000;-42
2022/04/24 10:59:55;;;;;;;4.78;3.70;;;;;;;17.56;40.09;98764.91;1762785;81;21640;-42
2022/04/24 11:02:24;;;;;;;6.10;4.50;;;;;;;17.77;41.19;98763.14;1762974;81;21569;-43
2022/04/24 11:05:06;;;;;;;4.72;4.05;;;;;;;18.10;39.41;98764.66;1762746;81;21067;-43
2022/04/24 11:07:36;;;;;;;4.90;4.40;;;;;;;18.38;38.66;98757.18;1763009;80;21057;-42
2022/04/24 11:10:09;;;;;;;6.17;4.20;;;;;;;18.54;37.38;98750.35;1762743;81;21506;-43
2022/04/24 11:12:38;;;;;;;5.45;4.10;;;;;;;18.57;38.63;98750.89;1763185;81;20996;-43
2022/04/24 11:15:14;;;;;;;4.28;3.87;;;;;;;18.67;37.82;98754.59;1763463;81;21033;-43
2022/04/24 11:17:42;;;;;;;4.28;3.87;;;;;;;18.88;37.86;98753.31;1763061;81;21038;-43
2022/04/24 11:20:15;;;;;;;4.37;3.77;;;;;;;19.11;37.21;98769.61;1763093;81;21007;-43
2022/04/24 11:22:51;;;;;;;4.78;4.28;;;;;;;19.20;37.28;98762.89;1762893;81;21004;-43
2022/04/24 11:25:21;;;;;;;4.55;3.95;;;;;;;19.16;36.83;98760.07;1775501;80;21502;-43
2022/04/24 11:27:58;;;;;;;5.15;4.65;;;;;;;19.07;37.27;98766.18;1778943;80;20992;-44
2022/04/24 11:30:31;;;;;;;4.55;4.10;;;;;;;19.02;36.99;98763.95;1779241;80;20933;-44
2022/04/24 11:33:06;;;;;;;5.10;4.20;;;;;;;18.95;36.82;98764.11;1778753;80;20914;-44
2022/04/24 11:35:39;;;;;;;4.50;3.98;;;;;;;18.84;37.11;98760.84;1779194;80;21487;-44
2022/04/24 11:38:08;;;;;;;6.67;3.95;;;;;;;18.90;37.18;98757.76;1778670;80;21408;-44